sensor_id;sensor_type;location;lat;lon;timestamp;pressure;altitude;pressure_sealevel;temperature;humidity
33949;BME280;20229;49.856;19.030;2023-02-12T00:04:52;102936.26;;;4.23;96.55
33949;BME280;20229;49.856;19.030;2023-02-12T00:10:10;102945.25;;;4.19;96.69
33949;BME280;20229;49.856;19.030;2023-02-12T00:15:15;102937.17;;;4.21;97.16
33949;BME280;20229;49.856;19.030;2023-02-12T00:20:37;102946.18;;;4.21;97.08
33949;BME280;20229;49.856;19.030;2023-02-12T00:25:41;102947.07;;;4.23;97.75
33949;BME280;20229;49.856;19.030;2023-02-12T00:31:10;102953.38;;;4.22;97.58
33949;BME280;20229;49.856;19.030;2023-02-12T00:36:17;102948.00;;;4.25;97.22
33949;BME280;20229;49.856;19.030;2023-02-12T00:41:29;102954.31;;;4.24;97.48
33949;BME280;20229;49.856;19.030;2023-02-12T00:46:32;102943.48;;;4.27;97.38
33949;BME280;20229;49.856;19.030;2023-02-12T00:51:54;102960.62;;;4.25;97.58
33949;BME280;20229;49.856;19.030;2023-02-12T00:56:57;102957.01;;;4.27;97.09
33949;BME280;20229;49.856;19.030;2023-02-12T01:02:20;102970.52;;;4.27;97.57
33949;BME280;20229;49.856;19.030;2023-02-12T01:07:23;102957.02;;;4.30;97.76
33949;BME280;20229;49.856;19.030;2023-02-12T01:12:47;102963.30;;;4.26;98.36
33949;BME280;20229;49.856;19.030;2023-02-12T01:17:51;102963.34;;;4.29;98.15
33949;BME280;20229;49.856;19.030;2023-02-12T01:23:13;102973.23;;;4.26;99.08
33949;BME280;20229;49.856;19.030;2023-02-12T01:28:17;102967.84;;;4.30;98.81
33949;BME280;20229;49.856;19.030;2023-02-12T01:33:41;102973.24;;;4.29;98.77
33949;BME280;20229;49.856;19.030;2023-02-12T01:38:45;102978.70;;;4.35;99.19
33949;BME280;20229;49.856;19.030;2023-02-12T01:44:14;102982.27;;;4.31;99.23
33949;BME280;20229;49.856;19.030;2023-02-12T01:49:21;102981.41;;;4.37;98.82
33949;BME280;20229;49.856;19.030;2023-02-12T01:54:36;102998.53;;;4.36;98.99
33949;BME280;20229;49.856;19.030;2023-02-12T01:59:42;102997.64;;;4.40;98.98
33949;BME280;20229;49.856;19.030;2023-02-12T02:05:06;103007.55;;;4.38;98.87
33949;BME280;20229;49.856;19.030;2023-02-12T02:10:09;103011.20;;;4.43;98.55
33949;BME280;20229;49.856;19.030;2023-02-12T02:15:30;103019.29;;;4.40;98.98
33949;BME280;20229;49.856;19.030;2023-02-12T02:20:46;103018.41;;;4.44;98.83
33949;BME280;20229;49.856;19.030;2023-02-12T02:26:06;103034.63;;;4.42;99.05
33949;BME280;20229;49.856;19.030;2023-02-12T02:31:17;103031.92;;;4.44;99.30
33949;BME280;20229;49.856;19.030;2023-02-12T02:36:34;103042.73;;;4.41;99.17
33949;BME280;20229;49.856;19.030;2023-02-12T02:41:54;103045.45;;;4.44;99.32
33949;BME280;20229;49.856;19.030;2023-02-12T02:46:54;103042.75;;;4.42;99.45
33949;BME280;20229;49.856;19.030;2023-02-12T02:52:06;103056.30;;;4.45;99.35
33949;BME280;20229;49.856;19.030;2023-02-12T03:02:30;103061.70;;;4.47;99.26
33949;BME280;20229;49.856;19.030;2023-02-12T03:07:41;103068.88;;;4.45;99.64
33949;BME280;20229;49.856;19.030;2023-02-12T03:18:09;103089.66;;;4.46;99.51
33949;BME280;20229;49.856;19.030;2023-02-12T03:23:22;103077.02;;;4.48;99.34
33949;BME280;20229;49.856;19.030;2023-02-12T03:28:36;103086.06;;;4.47;99.66
33949;BME280;20229;49.856;19.030;2023-02-12T03:39:08;103120.27;;;4.45;99.44
33949;BME280;20229;49.856;19.030;2023-02-12T03:49:37;103130.23;;;4.46;99.33
33949;BME280;20229;49.856;19.030;2023-02-12T03:54:41;103160.91;;;4.49;99.05
33949;BME280;20229;49.856;19.030;2023-02-12T03:59:53;103156.38;;;4.47;98.93
33949;BME280;20229;49.856;19.030;2023-02-12T04:04:56;103155.45;;;4.45;99.43
33949;BME280;20229;49.856;19.030;2023-02-12T04:20:57;103185.20;;;4.42;99.94
33949;BME280;20229;49.856;19.030;2023-02-12T04:36:48;103199.63;;;4.44;99.48
33949;BME280;20229;49.856;19.030;2023-02-12T04:41:56;103203.16;;;4.37;98.97
33949;BME280;20229;49.856;19.030;2023-02-12T04:47:00;103218.49;;;4.36;98.79
33949;BME280;20229;49.856;19.030;2023-02-12T04:52:03;103218.42;;;4.28;98.88
33949;BME280;20229;49.856;19.030;2023-02-12T04:57:08;103220.22;;;4.28;99.02
33949;BME280;20229;49.856;19.030;2023-02-12T05:02:26;103223.79;;;4.25;99.25
33949;BME280;20229;49.856;19.030;2023-02-12T05:07:30;103231.91;;;4.25;99.07
33949;BME280;20229;49.856;19.030;2023-02-12T05:12:52;103259.78;;;4.20;98.77
33949;BME280;20229;49.856;19.030;2023-02-12T05:17:56;103250.76;;;4.19;98.49
33949;BME280;20229;49.856;19.030;2023-02-12T05:23:17;103270.55;;;4.14;98.56
33949;BME280;20229;49.856;19.030;2023-02-12T05:28:20;103279.55;;;4.14;98.40
33949;BME280;20229;49.856;19.030;2023-02-12T05:33:46;103286.65;;;4.06;98.29
33949;BME280;20229;49.856;19.030;2023-02-12T05:38:50;103286.65;;;4.06;98.49
33949;BME280;20229;49.856;19.030;2023-02-12T05:44:10;103292.02;;;4.00;98.50
33949;BME280;20229;49.856;19.030;2023-02-12T05:49:14;103302.78;;;3.98;98.27
33949;BME280;20229;49.856;19.030;2023-02-12T05:54:36;103326.98;;;3.88;98.27
33949;BME280;20229;49.856;19.030;2023-02-12T05:59:39;103326.11;;;3.90;98.34
33949;BME280;20229;49.856;19.030;2023-02-12T06:05:02;103317.91;;;3.82;98.14
33949;BME280;20229;49.856;19.030;2023-02-12T06:10:07;103329.58;;;3.81;98.06
33949;BME280;20229;49.856;19.030;2023-02-12T06:15:28;103350.24;;;3.76;98.06
33949;BME280;20229;49.856;19.030;2023-02-12T06:20:33;103359.29;;;3.78;98.12
33949;BME280;20229;49.856;19.030;2023-02-12T06:25:55;103364.65;;;3.75;97.97
33949;BME280;20229;49.856;19.030;2023-02-12T06:30:59;103370.10;;;3.78;98.01
33949;BME280;20229;49.856;19.030;2023-02-12T06:36:20;103366.50;;;3.79;98.42
33949;BME280;20229;49.856;19.030;2023-02-12T06:41:24;103365.66;;;3.83;98.64
33949;BME280;20229;49.856;19.030;2023-02-12T06:46:46;103370.12;;;3.81;98.68
33949;BME280;20229;49.856;19.030;2023-02-12T06:51:49;103377.43;;;3.89;99.01
33949;BME280;20229;49.856;19.030;2023-02-12T06:57:12;103388.23;;;3.89;98.84
33949;BME280;20229;49.856;19.030;2023-02-12T07:02:15;103398.29;;;3.97;98.84
33949;BME280;20229;49.856;19.030;2023-02-12T07:07:38;103413.70;;;4.03;98.80
33949;BME280;20229;49.856;19.030;2023-02-12T07:12:41;103399.37;;;4.13;98.57
33949;BME280;20229;49.856;19.030;2023-02-12T07:18:04;103414.80;;;4.20;98.91
33949;BME280;20229;49.856;19.030;2023-02-12T07:23:10;103414.16;;;4.40;99.12
33949;BME280;20229;49.856;19.030;2023-02-12T07:28:30;103426.06;;;4.52;99.04
33949;BME280;20229;49.856;19.030;2023-02-12T07:33:37;103427.13;;;4.67;98.76
33949;BME280;20229;49.856;19.030;2023-02-12T07:38:56;103425.33;;;4.67;98.86
33949;BME280;20229;49.856;19.030;2023-02-12T07:44:04;103436.20;;;4.73;99.26
33949;BME280;20229;49.856;19.030;2023-02-12T07:49:22;103440.93;;;4.91;99.77
33949;BME280;20229;49.856;19.030;2023-02-12T07:54:27;103433.16;;;5.26;100.00
33949;BME280;20229;49.856;19.030;2023-02-12T07:59:47;103457.85;;;5.63;99.02
33949;BME280;20229;49.856;19.030;2023-02-12T08:04:55;103460.87;;;5.98;97.53
33949;BME280;20229;49.856;19.030;2023-02-12T08:10:13;103458.14;;;5.98;95.35
33949;BME280;20229;49.856;19.030;2023-02-12T08:15:17;103463.37;;;5.79;95.13
33949;BME280;20229;49.856;19.030;2023-02-12T08:20:39;103465.23;;;5.84;95.58
33949;BME280;20229;49.856;19.030;2023-02-12T08:25:44;103471.92;;;6.34;93.42
33949;BME280;20229;49.856;19.030;2023-02-12T08:31:08;103481.96;;;6.52;89.69
33949;BME280;20229;49.856;19.030;2023-02-12T08:36:15;103505.51;;;6.60;90.33
33949;BME280;20229;49.856;19.030;2023-02-12T08:41:33;103511.83;;;6.56;89.02
33949;BME280;20229;49.856;19.030;2023-02-12T08:46:42;103511.78;;;6.50;88.61
33949;BME280;20229;49.856;19.030;2023-02-12T08:51:58;103533.47;;;6.41;88.08
33949;BME280;20229;49.856;19.030;2023-02-12T08:57:04;103525.32;;;6.41;86.89
33949;BME280;20229;49.856;19.030;2023-02-12T09:02:23;103535.24;;;6.39;86.72
33949;BME280;20229;49.856;19.030;2023-02-12T09:07:26;103535.24;;;6.39;87.06
33949;BME280;20229;49.856;19.030;2023-02-12T09:12:50;103544.51;;;6.72;86.64
33949;BME280;20229;49.856;19.030;2023-02-12T09:17:53;103536.48;;;7.02;85.97
33949;BME280;20229;49.856;19.030;2023-02-12T09:23:16;103536.59;;;7.39;84.17
33949;BME280;20229;49.856;19.030;2023-02-12T09:28:20;103533.89;;;7.62;81.95
33949;BME280;20229;49.856;19.030;2023-02-12T09:33:46;103552.87;;;7.33;81.13
33949;BME280;20229;49.856;19.030;2023-02-12T09:38:50;103563.70;;;7.19;83.46
33949;BME280;20229;49.856;19.030;2023-02-12T09:54:42;103590.76;;;6.96;81.72
33949;BME280;20229;49.856;19.030;2023-02-12T09:59:51;103591.63;;;6.89;81.69
33949;BME280;20229;49.856;19.030;2023-02-12T10:05:05;103609.66;;;6.75;81.10
33949;BME280;20229;49.856;19.030;2023-02-12T10:10:21;103617.76;;;6.67;80.62
33949;BME280;20229;49.856;19.030;2023-02-12T10:21:07;103617.88;;;6.82;79.09
33949;BME280;20229;49.856;19.030;2023-02-12T10:26:09;103613.52;;;7.21;79.16
33949;BME280;20229;49.856;19.030;2023-02-12T10:41:51;103614.52;;;7.48;77.00
33949;BME280;20229;49.856;19.030;2023-02-12T10:46:56;103605.45;;;7.42;76.55
33949;BME280;20229;49.856;19.030;2023-02-12T10:52:15;103610.96;;;7.75;75.96
33949;BME280;20229;49.856;19.030;2023-02-12T10:57:25;103608.27;;;7.96;75.81
33949;BME280;20229;49.856;19.030;2023-02-12T11:02:32;103605.54;;;8.11;75.10
33949;BME280;20229;49.856;19.030;2023-02-12T11:07:47;103602.80;;;8.16;74.68
33949;BME280;20229;49.856;19.030;2023-02-12T11:12:50;103615.53;;;8.03;74.48
33949;BME280;20229;49.856;19.030;2023-02-12T11:18:06;103626.38;;;7.91;75.11
33949;BME280;20229;49.856;19.030;2023-02-12T11:28:33;103620.96;;;7.88;72.61
33949;BME280;20229;49.856;19.030;2023-02-12T11:33:37;103611.87;;;7.80;74.52
33949;BME280;20229;49.856;19.030;2023-02-12T11:38:57;103627.28;;;7.79;73.67
33949;BME280;20229;49.856;19.030;2023-02-12T11:49:26;103635.39;;;7.53;75.10
33949;BME280;20229;49.856;19.030;2023-02-12T11:59:49;103642.59;;;7.39;74.53
33949;BME280;20229;49.856;19.030;2023-02-12T12:04:55;103635.30;;;7.33;74.71
33949;BME280;20229;49.856;19.030;2023-02-12T12:15:36;103632.63;;;7.42;73.64
33949;BME280;20229;49.856;19.030;2023-02-12T12:21:00;103619.91;;;7.38;74.08
33949;BME280;20229;49.856;19.030;2023-02-12T13:13:34;103627.91;;;6.97;75.84
33949;BME280;20229;49.856;19.030;2023-02-12T13:23:59;103638.66;;;6.82;75.60
33949;BME280;20229;49.856;19.030;2023-02-12T13:29:19;103642.28;;;6.81;75.55
33949;BME280;20229;49.856;19.030;2023-02-12T13:34:20;103648.59;;;6.77;75.79
33949;BME280;20229;49.856;19.030;2023-02-12T13:39:31;103642.26;;;6.78;76.27
33949;BME280;20229;49.856;19.030;2023-02-12T13:50:45;103650.50;;;6.90;75.76
33949;BME280;20229;49.856;19.030;2023-02-12T13:55:17;103640.52;;;6.89;76.00
33949;BME280;20229;49.856;19.030;2023-02-12T14:05:36;103640.41;;;6.70;75.59
33949;BME280;20229;49.856;19.030;2023-02-12T14:10:40;103639.48;;;6.67;77.01
33949;BME280;20229;49.856;19.030;2023-02-12T14:15:50;103635.88;;;6.71;76.37
33949;BME280;20229;49.856;19.030;2023-02-12T14:26:19;103634.94;;;6.61;76.55
33949;BME280;20229;49.856;19.030;2023-02-12T14:31:33;103643.93;;;6.54;76.89
33949;BME280;20229;49.856;19.030;2023-02-12T14:36:39;103648.34;;;6.41;76.74
33949;BME280;20229;49.856;19.030;2023-02-12T14:47:01;103638.02;;;6.01;77.53
33949;BME280;20229;49.856;19.030;2023-02-12T14:57:29;103640.60;;;5.87;79.37
33949;BME280;20229;49.856;19.030;2023-02-12T15:02:35;103650.52;;;5.85;79.93
33949;BME280;20229;49.856;19.030;2023-02-12T15:08:01;103648.63;;;5.78;80.41
33949;BME280;20229;49.856;19.030;2023-02-12T15:13:14;103653.15;;;5.77;80.68
33949;BME280;20229;49.856;19.030;2023-02-12T15:23:40;103653.95;;;5.68;82.04
33949;BME280;20229;49.856;19.030;2023-02-12T15:28:49;103661.00;;;5.54;81.99
33949;BME280;20229;49.856;19.030;2023-02-12T15:33:55;103673.65;;;5.52;82.23
33949;BME280;20229;49.856;19.030;2023-02-12T15:39:04;103673.52;;;5.43;82.40
33949;BME280;20229;49.856;19.030;2023-02-12T15:44:18;103657.13;;;5.32;83.57
33949;BME280;20229;49.856;19.030;2023-02-12T15:49:32;103665.84;;;5.08;83.81
33949;BME280;20229;49.856;19.030;2023-02-12T15:54:37;103677.48;;;5.01;84.17
33949;BME280;20229;49.856;19.030;2023-02-12T15:59:54;103680.98;;;4.92;84.34
33949;BME280;20229;49.856;19.030;2023-02-12T16:04:59;103677.41;;;4.95;84.11
33949;BME280;20229;49.856;19.030;2023-02-12T16:10:15;103682.68;;;4.86;84.08
33949;BME280;20229;49.856;19.030;2023-02-12T16:15:24;103683.27;;;4.66;83.86
33949;BME280;20229;49.856;19.030;2023-02-12T16:20:39;103705.34;;;4.38;84.78
33949;BME280;20229;49.856;19.030;2023-02-12T16:25:53;103704.48;;;4.39;85.06
33949;BME280;20229;49.856;19.030;2023-02-12T16:31:10;103706.23;;;4.37;84.95
33949;BME280;20229;49.856;19.030;2023-02-12T16:41:31;103706.77;;;4.16;85.14
33949;BME280;20229;49.856;19.030;2023-02-12T16:46:46;103722.72;;;4.00;84.97
33949;BME280;20229;49.856;19.030;2023-02-12T16:57:12;103720.96;;;3.57;86.15
33949;BME280;20229;49.856;19.030;2023-02-12T17:02:26;103709.74;;;3.39;86.67
33949;BME280;20229;49.856;19.030;2023-02-12T17:07:30;103706.79;;;3.26;86.78
33949;BME280;20229;49.856;19.030;2023-02-12T17:12:52;103714.60;;;3.14;86.98
33949;BME280;20229;49.856;19.030;2023-02-12T17:17:55;103706.31;;;3.05;86.40
33949;BME280;20229;49.856;19.030;2023-02-12T17:23:18;103716.67;;;2.86;86.62
33949;BME280;20229;49.856;19.030;2023-02-12T17:28:22;103704.66;;;2.72;86.46
33949;BME280;20229;49.856;19.030;2023-02-12T17:33:44;103712.24;;;2.52;86.57
33949;BME280;20229;49.856;19.030;2023-02-12T17:38:48;103715.50;;;2.39;86.74
33949;BME280;20229;49.856;19.030;2023-02-12T17:44:10;103726.78;;;2.23;86.93
33949;BME280;20229;49.856;19.030;2023-02-12T17:49:16;103724.73;;;2.14;87.43
33949;BME280;20229;49.856;19.030;2023-02-12T17:54:36;103719.58;;;1.90;87.70
33949;BME280;20229;49.856;19.030;2023-02-12T17:59:40;103722.16;;;1.85;88.05
33949;BME280;20229;49.856;19.030;2023-02-12T18:05:02;103707.59;;;1.79;88.07
33949;BME280;20229;49.856;19.030;2023-02-12T18:10:07;103704.78;;;1.74;87.93
33949;BME280;20229;49.856;19.030;2023-02-12T18:15:27;103703.52;;;1.61;88.15
33949;BME280;20229;49.856;19.030;2023-02-12T18:20:31;103710.59;;;1.58;87.99
33949;BME280;20229;49.856;19.030;2023-02-12T18:25:53;103702.87;;;1.38;88.26
33949;BME280;20229;49.856;19.030;2023-02-12T18:30:57;103704.36;;;1.29;87.95
33949;BME280;20229;49.856;19.030;2023-02-12T18:36:20;103705.66;;;1.13;88.47
33949;BME280;20229;49.856;19.030;2023-02-12T18:41:26;103700.02;;;1.04;88.65
33949;BME280;20229;49.856;19.030;2023-02-12T18:46:45;103715.05;;;0.97;89.18
33949;BME280;20229;49.856;19.030;2023-02-12T18:51:49;103706.85;;;0.92;88.86
33949;BME280;20229;49.856;19.030;2023-02-12T18:57:11;103713.56;;;0.78;89.61
33949;BME280;20229;49.856;19.030;2023-02-12T19:02:15;103712.48;;;0.73;89.48
33949;BME280;20229;49.856;19.030;2023-02-12T19:07:37;103711.23;;;0.62;89.98
33949;BME280;20229;49.856;19.030;2023-02-12T19:12:40;103702.11;;;0.57;90.37
33949;BME280;20229;49.856;19.030;2023-02-12T19:18:04;103701.80;;;0.47;90.43
33949;BME280;20229;49.856;19.030;2023-02-12T19:23:07;103689.12;;;0.43;90.62
33949;BME280;20229;49.856;19.030;2023-02-12T19:28:30;103706.81;;;0.37;90.95
33949;BME280;20229;49.856;19.030;2023-02-12T19:33:33;103693.38;;;0.37;90.67
33949;BME280;20229;49.856;19.030;2023-02-12T19:38:56;103693.97;;;0.28;91.02
33949;BME280;20229;49.856;19.030;2023-02-12T19:44:00;103693.13;;;0.29;91.34
33949;BME280;20229;49.856;19.030;2023-02-12T19:49:26;103703.63;;;0.21;91.73
33949;BME280;20229;49.856;19.030;2023-02-12T19:54:30;103695.48;;;0.20;91.74
33949;BME280;20229;49.856;19.030;2023-02-12T19:59:48;103710.48;;;0.13;91.95
33949;BME280;20229;49.856;19.030;2023-02-12T20:04:51;103700.56;;;0.11;91.84
33949;BME280;20229;49.856;19.030;2023-02-12T20:10:15;103702.95;;;0.03;92.28
33949;BME280;20229;49.856;19.030;2023-02-12T20:15:19;103699.31;;;0.01;91.99
33949;BME280;20229;49.856;19.030;2023-02-12T20:20:40;103699.85;;;-0.09;92.57
33949;BME280;20229;49.856;19.030;2023-02-12T20:25:44;103706.09;;;-0.10;92.88
33949;BME280;20229;49.856;19.030;2023-02-12T20:36:20;103697.74;;;-0.18;92.73
33949;BME280;20229;49.856;19.030;2023-02-12T20:41:33;103709.20;;;-0.23;93.09
33949;BME280;20229;49.856;19.030;2023-02-12T20:46:39;103715.70;;;-0.17;93.13
33949;BME280;20229;49.856;19.030;2023-02-12T20:51:59;103715.82;;;-0.14;94.06
33949;BME280;20229;49.856;19.030;2023-02-12T20:57:02;103712.80;;;0.03;94.63
33949;BME280;20229;49.856;19.030;2023-02-12T21:02:25;103716.76;;;0.14;94.89
33949;BME280;20229;49.856;19.030;2023-02-12T21:07:29;103711.83;;;0.26;95.17
33949;BME280;20229;49.856;19.030;2023-02-12T21:12:51;103723.70;;;0.33;94.97
33949;BME280;20229;49.856;19.030;2023-02-12T21:17:55;103721.52;;;0.48;95.16
33949;BME280;20229;49.856;19.030;2023-02-12T21:23:18;103721.63;;;0.51;95.54
33949;BME280;20229;49.856;19.030;2023-02-12T21:28:21;103709.30;;;0.58;95.58
33949;BME280;20229;49.856;19.030;2023-02-12T21:33:45;103725.23;;;0.52;94.89
33949;BME280;20229;49.856;19.030;2023-02-12T21:38:50;103723.20;;;0.44;94.63
33949;BME280;20229;49.856;19.030;2023-02-12T21:44:16;103726.22;;;0.28;94.74
33949;BME280;20229;49.856;19.030;2023-02-12T21:49:20;103726.32;;;0.31;95.12
33949;BME280;20229;49.856;19.030;2023-02-12T21:54:36;103737.28;;;0.37;95.94
33949;BME280;20229;49.856;19.030;2023-02-12T21:59:40;103726.86;;;0.46;96.38
33949;BME280;20229;49.856;19.030;2023-02-12T22:05:03;103730.71;;;0.55;96.77
33949;BME280;20229;49.856;19.030;2023-02-12T22:10:07;103728.27;;;0.62;96.47
33949;BME280;20229;49.856;19.030;2023-02-12T22:15:29;103731.97;;;0.66;96.72
33949;BME280;20229;49.856;19.030;2023-02-12T22:20:32;103722.30;;;0.71;96.80
33949;BME280;20229;49.856;19.030;2023-02-12T22:31:11;103728.05;;;0.83;96.50
33949;BME280;20229;49.856;19.030;2023-02-12T22:36:22;103725.41;;;0.85;96.42
33949;BME280;20229;49.856;19.030;2023-02-12T22:41:27;103723.09;;;0.95;96.47
33949;BME280;20229;49.856;19.030;2023-02-12T22:46:48;103742.95;;;1.01;96.29
33949;BME280;20229;49.856;19.030;2023-02-12T22:51:52;103730.65;;;1.09;97.12
33949;BME280;20229;49.856;19.030;2023-02-12T22:57:15;103728.84;;;1.08;96.66
33949;BME280;20229;49.856;19.030;2023-02-12T23:02:19;103728.26;;;1.18;97.08
33949;BME280;20229;49.856;19.030;2023-02-12T23:07:39;103736.33;;;1.18;97.16
33949;BME280;20229;49.856;19.030;2023-02-12T23:12:43;103722.20;;;1.25;96.91
33949;BME280;20229;49.856;19.030;2023-02-12T23:18:05;103730.20;;;1.24;96.94
33949;BME280;20229;49.856;19.030;2023-02-12T23:23:08;103731.31;;;1.30;96.63
33949;BME280;20229;49.856;19.030;2023-02-12T23:28:31;103732.19;;;1.29;97.24
33949;BME280;20229;49.856;19.030;2023-02-12T23:33:34;103724.30;;;1.35;97.18
33949;BME280;20229;49.856;19.030;2023-02-12T23:38:57;103717.12;;;1.34;97.22
33949;BME280;20229;49.856;19.030;2023-02-12T23:44:02;103715.55;;;1.42;96.95
33949;BME280;20229;49.856;19.030;2023-02-12T23:49:23;103719.27;;;1.48;96.82
33949;BME280;20229;49.856;19.030;2023-02-12T23:54:26;103715.04;;;1.56;97.36
33949;BME280;20229;49.856;19.030;2023-02-12T23:59:49;103712.35;;;1.56;97.54
